Airfield :
LOGIN :

Register | Disclaimer

   EN    FR    IT 

 










Legend :    VFR   Marginal VFR   IFR   Intensive IFR   Very Intensive IFR
Visi :
Ceiling :
>= 8 km
>= 3000ft
5 to 8 km
1000 to 3000 ft
1500m to 5 km
500 to 1000 ft
800 to 1500m
200 to 500 ft
< 800m
< 200 ft
Symbols :   Thunderstorms  Fog  Heavy snow  Heavy precipitations  Wind > 20 kt
SIGMETs :     Misc.  Thunderstorms  Icing  Turbulence  Mountain Waves  Volcanic Ashes






- Airport Elevation : 53 ft
- IATA code : HAM


EDDH - Hamburg

CURRENT METAR :
  • 071220Z 27011KT 230V290 7000 -RADZ SCT008 BKN011 08/07 Q1006 TEMPO 27015G25KT BKN015

EXPIRED METARs :
  • 071150Z 27012KT 240V300 7000 -RADZ BKN008 09/07 Q1005 TEMPO 27015G25KT 4000 SHRA BKN008CB
  • 071120Z 27011KT 6000 -SHRA SCT008 FEW012CB BKN030 08/07 Q1005 TEMPO 27015G25KT 4000 SHRA BKN008CB
  • 071050Z 27011KT 6000 -SHRA FEW008 SCT012CB BKN030 08/07 Q1005 TEMPO 27015G25KT 4000 SHRA BKN008CB
  • 071020Z 26013KT 220V290 7000 -SHRA FEW008 SCT010CB BKN013 09/07 Q1005 TEMPO 27015G25KT 4000 SHRA BKN008CB
  • 070950Z 26011KT 230V290 9999 VCSH SCT008 BKN012 09/07 Q1005 TEMPO 27015G25KT 4000 SHRA BKN008CB

TAF TAF EDDH
Valid from the 07 at 12:00 until the 08 at 18:00 UTC


071100Z 0712/0818 26010KT 9999 SCT010 BKN020
TEMPO 0712/0716 27015G25KT 4000 SHRA BKN008CB
PROB30
TEMPO 0716/0723 4500 SHRA BKN012CB
BECMG 0723/0802 22015KT
TEMPO 0723/0805 22015G25KT BKN012
BECMG 0805/0808 22015G25KT BKN014
TEMPO 0808/0815 22020G35KT 3000 RA BKN007
BECMG 0813/0815 SCT015 BKN025
PROB30
TEMPO 0815/0818 4000 -SHRA BKN012CB



MET'MAP, your aeronautical weather chart ! - Copyright ORBIFLY December 2007 - Disclaimer

ORBIFLY MET'MAP TEAM :

Programming & Development : Alexandra Zaïnal
Concept & original design : Baudouin d'Aumeries
Assistance for programming : Marc-Olivier Méhu
Technical & hardware support : Manuel Goepfert

Contact : metmap@orbifly.com




SOURCES & CREDITS :

   NOAA